sensor_id;sensor_type;location;lat;lon;timestamp;P1;durP1;ratioP1;P2;durP2;ratioP2
21480;SDS011;10902;48.158;8.634;2023-02-07T00:02:09;12.05;;;6.75;;
21480;SDS011;10902;48.158;8.634;2023-02-07T00:04:35;12.10;;;6.88;;
21480;SDS011;10902;48.158;8.634;2023-02-07T00:07:01;12.48;;;7.78;;
21480;SDS011;10902;48.158;8.634;2023-02-07T00:09:26;12.07;;;6.78;;
21480;SDS011;10902;48.158;8.634;2023-02-07T00:11:52;11.07;;;6.68;;
21480;SDS011;10902;48.158;8.634;2023-02-07T00:14:17;11.82;;;7.38;;
21480;SDS011;10902;48.158;8.634;2023-02-07T00:16:43;14.15;;;8.00;;
21480;SDS011;10902;48.158;8.634;2023-02-07T00:19:08;13.13;;;7.90;;
21480;SDS011;10902;48.158;8.634;2023-02-07T00:21:34;15.90;;;9.00;;
21480;SDS011;10902;48.158;8.634;2023-02-07T00:24:00;13.88;;;8.27;;
21480;SDS011;10902;48.158;8.634;2023-02-07T00:26:26;12.95;;;8.32;;
21480;SDS011;10902;48.158;8.634;2023-02-07T00:28:52;15.30;;;9.23;;
21480;SDS011;10902;48.158;8.634;2023-02-07T00:31:23;16.02;;;9.35;;
21480;SDS011;10902;48.158;8.634;2023-02-07T00:33:50;17.25;;;9.60;;
21480;SDS011;10902;48.158;8.634;2023-02-07T00:36:19;15.98;;;9.18;;
21480;SDS011;10902;48.158;8.634;2023-02-07T00:38:46;16.30;;;9.32;;
21480;SDS011;10902;48.158;8.634;2023-02-07T00:41:12;16.65;;;9.82;;
21480;SDS011;10902;48.158;8.634;2023-02-07T00:43:40;15.90;;;9.43;;
21480;SDS011;10902;48.158;8.634;2023-02-07T00:46:06;15.25;;;9.48;;
21480;SDS011;10902;48.158;8.634;2023-02-07T00:48:32;15.30;;;8.88;;
21480;SDS011;10902;48.158;8.634;2023-02-07T00:50:58;15.93;;;9.93;;
21480;SDS011;10902;48.158;8.634;2023-02-07T00:53:25;14.80;;;9.13;;
21480;SDS011;10902;48.158;8.634;2023-02-07T00:55:51;15.95;;;9.45;;
21480;SDS011;10902;48.158;8.634;2023-02-07T00:58:17;17.77;;;9.48;;
21480;SDS011;10902;48.158;8.634;2023-02-07T01:00:43;15.88;;;9.45;;
21480;SDS011;10902;48.158;8.634;2023-02-07T01:03:09;16.85;;;9.48;;
21480;SDS011;10902;48.158;8.634;2023-02-07T01:05:34;16.75;;;9.02;;
21480;SDS011;10902;48.158;8.634;2023-02-07T01:08:00;17.20;;;10.45;;
21480;SDS011;10902;48.158;8.634;2023-02-07T01:10:26;17.40;;;10.50;;
21480;SDS011;10902;48.158;8.634;2023-02-07T01:12:51;18.48;;;9.75;;
21480;SDS011;10902;48.158;8.634;2023-02-07T01:15:17;16.00;;;9.50;;
21480;SDS011;10902;48.158;8.634;2023-02-07T01:17:43;15.05;;;9.80;;
21480;SDS011;10902;48.158;8.634;2023-02-07T01:20:10;16.55;;;9.90;;
21480;SDS011;10902;48.158;8.634;2023-02-07T01:22:36;17.73;;;10.27;;
21480;SDS011;10902;48.158;8.634;2023-02-07T01:25:03;19.95;;;11.15;;
21480;SDS011;10902;48.158;8.634;2023-02-07T01:27:29;19.38;;;10.25;;
21480;SDS011;10902;48.158;8.634;2023-02-07T01:29:55;16.45;;;9.50;;
21480;SDS011;10902;48.158;8.634;2023-02-07T01:32:21;19.10;;;10.02;;
21480;SDS011;10902;48.158;8.634;2023-02-07T01:34:46;16.23;;;9.07;;
21480;SDS011;10902;48.158;8.634;2023-02-07T01:37:12;18.05;;;10.25;;
21480;SDS011;10902;48.158;8.634;2023-02-07T01:39:37;19.13;;;10.32;;
21480;SDS011;10902;48.158;8.634;2023-02-07T01:42:03;18.75;;;9.55;;
21480;SDS011;10902;48.158;8.634;2023-02-07T01:46:55;15.25;;;9.05;;
21480;SDS011;10902;48.158;8.634;2023-02-07T01:49:23;17.73;;;10.18;;
21480;SDS011;10902;48.158;8.634;2023-02-07T01:51:56;19.40;;;10.40;;
21480;SDS011;10902;48.158;8.634;2023-02-07T01:54:26;17.08;;;9.55;;
21480;SDS011;10902;48.158;8.634;2023-02-07T01:56:57;20.00;;;11.75;;
21480;SDS011;10902;48.158;8.634;2023-02-07T01:59:26;17.10;;;10.23;;
21480;SDS011;10902;48.158;8.634;2023-02-07T02:01:53;19.05;;;10.63;;
21480;SDS011;10902;48.158;8.634;2023-02-07T02:04:19;19.92;;;11.77;;
21480;SDS011;10902;48.158;8.634;2023-02-07T02:06:45;17.00;;;9.85;;
21480;SDS011;10902;48.158;8.634;2023-02-07T02:09:13;15.63;;;9.77;;
21480;SDS011;10902;48.158;8.634;2023-02-07T02:11:55;18.05;;;10.10;;
21480;SDS011;10902;48.158;8.634;2023-02-07T02:20:36;18.55;;;11.55;;
21480;SDS011;10902;48.158;8.634;2023-02-07T02:23:41;18.98;;;11.73;;
21480;SDS011;10902;48.158;8.634;2023-02-07T02:32:32;28.88;;;16.38;;
21480;SDS011;10902;48.158;8.634;2023-02-07T02:43:11;35.60;;;19.00;;
21480;SDS011;10902;48.158;8.634;2023-02-07T02:45:44;33.08;;;17.10;;
21480;SDS011;10902;48.158;8.634;2023-02-07T02:48:15;25.88;;;15.07;;
21480;SDS011;10902;48.158;8.634;2023-02-07T02:50:45;28.63;;;15.68;;
21480;SDS011;10902;48.158;8.634;2023-02-07T02:53:13;27.30;;;15.07;;
21480;SDS011;10902;48.158;8.634;2023-02-07T03:16:02;32.72;;;17.40;;
21480;SDS011;10902;48.158;8.634;2023-02-07T03:18:40;30.83;;;17.13;;
21480;SDS011;10902;48.158;8.634;2023-02-07T03:23:46;28.05;;;16.05;;
21480;SDS011;10902;48.158;8.634;2023-02-07T03:26:13;26.35;;;15.48;;
21480;SDS011;10902;48.158;8.634;2023-02-07T03:28:39;23.30;;;15.15;;
21480;SDS011;10902;48.158;8.634;2023-02-07T03:31:06;29.63;;;16.92;;
21480;SDS011;10902;48.158;8.634;2023-02-07T03:33:34;27.63;;;16.90;;
21480;SDS011;10902;48.158;8.634;2023-02-07T03:36:07;31.10;;;18.05;;
21480;SDS011;10902;48.158;8.634;2023-02-07T03:38:34;33.25;;;17.95;;
21480;SDS011;10902;48.158;8.634;2023-02-07T03:41:04;30.00;;;17.30;;
21480;SDS011;10902;48.158;8.634;2023-02-07T03:43:34;30.90;;;17.55;;
21480;SDS011;10902;48.158;8.634;2023-02-07T03:46:03;31.75;;;17.45;;
21480;SDS011;10902;48.158;8.634;2023-02-07T03:48:31;27.33;;;16.95;;
21480;SDS011;10902;48.158;8.634;2023-02-07T03:50:57;28.05;;;16.08;;
21480;SDS011;10902;48.158;8.634;2023-02-07T03:53:22;26.20;;;15.85;;
21480;SDS011;10902;48.158;8.634;2023-02-07T03:55:48;23.15;;;15.00;;
21480;SDS011;10902;48.158;8.634;2023-02-07T03:58:13;23.40;;;14.95;;
21480;SDS011;10902;48.158;8.634;2023-02-07T04:00:39;29.52;;;16.40;;
21480;SDS011;10902;48.158;8.634;2023-02-07T04:03:05;25.60;;;14.43;;
21480;SDS011;10902;48.158;8.634;2023-02-07T04:05:30;27.38;;;15.35;;
21480;SDS011;10902;48.158;8.634;2023-02-07T04:07:56;26.25;;;15.85;;
21480;SDS011;10902;48.158;8.634;2023-02-07T04:10:22;23.90;;;14.88;;
21480;SDS011;10902;48.158;8.634;2023-02-07T04:12:47;26.63;;;15.80;;
21480;SDS011;10902;48.158;8.634;2023-02-07T04:15:13;26.35;;;14.60;;
21480;SDS011;10902;48.158;8.634;2023-02-07T04:17:38;29.70;;;16.50;;
21480;SDS011;10902;48.158;8.634;2023-02-07T04:20:04;24.10;;;14.90;;
21480;SDS011;10902;48.158;8.634;2023-02-07T04:22:30;26.33;;;15.50;;
21480;SDS011;10902;48.158;8.634;2023-02-07T04:24:56;28.25;;;16.05;;
21480;SDS011;10902;48.158;8.634;2023-02-07T04:27:22;26.58;;;14.82;;
21480;SDS011;10902;48.158;8.634;2023-02-07T04:29:48;24.38;;;14.85;;
21480;SDS011;10902;48.158;8.634;2023-02-07T04:32:14;20.67;;;12.32;;
21480;SDS011;10902;48.158;8.634;2023-02-07T04:34:39;22.42;;;13.35;;
21480;SDS011;10902;48.158;8.634;2023-02-07T04:37:05;19.60;;;12.40;;
21480;SDS011;10902;48.158;8.634;2023-02-07T04:39:30;19.13;;;11.85;;
21480;SDS011;10902;48.158;8.634;2023-02-07T04:41:56;20.30;;;12.27;;
21480;SDS011;10902;48.158;8.634;2023-02-07T04:44:21;22.67;;;12.93;;
21480;SDS011;10902;48.158;8.634;2023-02-07T04:46:47;20.95;;;12.60;;
21480;SDS011;10902;48.158;8.634;2023-02-07T04:49:13;22.35;;;14.18;;
21480;SDS011;10902;48.158;8.634;2023-02-07T04:51:38;23.60;;;14.70;;
21480;SDS011;10902;48.158;8.634;2023-02-07T04:54:04;23.27;;;13.63;;
21480;SDS011;10902;48.158;8.634;2023-02-07T04:56:29;21.27;;;12.93;;
21480;SDS011;10902;48.158;8.634;2023-02-07T04:58:55;21.60;;;13.77;;
21480;SDS011;10902;48.158;8.634;2023-02-07T05:01:20;22.58;;;14.10;;
21480;SDS011;10902;48.158;8.634;2023-02-07T05:03:46;25.33;;;14.65;;
21480;SDS011;10902;48.158;8.634;2023-02-07T05:06:12;22.33;;;14.38;;
21480;SDS011;10902;48.158;8.634;2023-02-07T05:08:37;26.27;;;15.90;;
21480;SDS011;10902;48.158;8.634;2023-02-07T05:11:03;28.00;;;15.07;;
21480;SDS011;10902;48.158;8.634;2023-02-07T05:13:29;25.75;;;16.73;;
21480;SDS011;10902;48.158;8.634;2023-02-07T05:15:55;31.73;;;17.40;;
21480;SDS011;10902;48.158;8.634;2023-02-07T05:18:20;26.75;;;16.00;;
21480;SDS011;10902;48.158;8.634;2023-02-07T05:20:46;25.55;;;16.33;;
21480;SDS011;10902;48.158;8.634;2023-02-07T05:23:12;24.65;;;15.00;;
21480;SDS011;10902;48.158;8.634;2023-02-07T05:25:40;26.40;;;15.52;;
21480;SDS011;10902;48.158;8.634;2023-02-07T05:28:06;25.77;;;15.98;;
21480;SDS011;10902;48.158;8.634;2023-02-07T05:30:31;26.73;;;17.08;;
21480;SDS011;10902;48.158;8.634;2023-02-07T05:32:57;25.70;;;15.55;;
21480;SDS011;10902;48.158;8.634;2023-02-07T05:35:32;24.45;;;15.23;;
21480;SDS011;10902;48.158;8.634;2023-02-07T05:38:03;29.25;;;16.73;;
21480;SDS011;10902;48.158;8.634;2023-02-07T05:40:31;26.40;;;15.65;;
21480;SDS011;10902;48.158;8.634;2023-02-07T05:42:57;28.33;;;16.02;;
21480;SDS011;10902;48.158;8.634;2023-02-07T05:45:23;23.55;;;15.18;;
21480;SDS011;10902;48.158;8.634;2023-02-07T05:47:49;28.35;;;16.58;;
21480;SDS011;10902;48.158;8.634;2023-02-07T05:50:15;24.83;;;15.30;;
21480;SDS011;10902;48.158;8.634;2023-02-07T05:52:41;28.90;;;16.08;;
21480;SDS011;10902;48.158;8.634;2023-02-07T05:55:07;23.65;;;15.02;;
21480;SDS011;10902;48.158;8.634;2023-02-07T05:57:33;25.10;;;15.07;;
21480;SDS011;10902;48.158;8.634;2023-02-07T05:59:59;26.25;;;15.52;;
21480;SDS011;10902;48.158;8.634;2023-02-07T06:02:24;27.15;;;17.27;;
21480;SDS011;10902;48.158;8.634;2023-02-07T06:04:50;27.52;;;16.67;;
21480;SDS011;10902;48.158;8.634;2023-02-07T06:07:16;27.10;;;16.23;;
21480;SDS011;10902;48.158;8.634;2023-02-07T06:09:41;26.90;;;16.73;;
21480;SDS011;10902;48.158;8.634;2023-02-07T06:12:07;28.48;;;17.60;;
21480;SDS011;10902;48.158;8.634;2023-02-07T06:14:32;25.30;;;16.55;;
21480;SDS011;10902;48.158;8.634;2023-02-07T06:16:58;27.60;;;16.48;;
21480;SDS011;10902;48.158;8.634;2023-02-07T06:19:23;28.55;;;17.05;;
21480;SDS011;10902;48.158;8.634;2023-02-07T06:21:49;27.33;;;16.20;;
21480;SDS011;10902;48.158;8.634;2023-02-07T06:24:15;31.75;;;18.23;;
21480;SDS011;10902;48.158;8.634;2023-02-07T06:26:40;31.40;;;18.48;;
21480;SDS011;10902;48.158;8.634;2023-02-07T06:29:06;33.05;;;19.85;;
21480;SDS011;10902;48.158;8.634;2023-02-07T06:31:32;31.63;;;18.77;;
21480;SDS011;10902;48.158;8.634;2023-02-07T06:33:57;34.10;;;18.38;;
21480;SDS011;10902;48.158;8.634;2023-02-07T06:36:23;31.27;;;18.13;;
21480;SDS011;10902;48.158;8.634;2023-02-07T06:38:49;33.00;;;19.20;;
21480;SDS011;10902;48.158;8.634;2023-02-07T06:41:18;33.85;;;19.55;;
21480;SDS011;10902;48.158;8.634;2023-02-07T06:43:44;32.08;;;18.90;;
21480;SDS011;10902;48.158;8.634;2023-02-07T06:46:09;33.30;;;20.05;;
21480;SDS011;10902;48.158;8.634;2023-02-07T06:48:35;32.08;;;19.42;;
21480;SDS011;10902;48.158;8.634;2023-02-07T06:51:00;32.85;;;19.35;;
21480;SDS011;10902;48.158;8.634;2023-02-07T06:53:26;32.17;;;18.80;;
21480;SDS011;10902;48.158;8.634;2023-02-07T06:55:53;32.72;;;18.90;;
21480;SDS011;10902;48.158;8.634;2023-02-07T06:58:19;33.85;;;19.95;;
21480;SDS011;10902;48.158;8.634;2023-02-07T07:00:45;32.78;;;19.15;;
21480;SDS011;10902;48.158;8.634;2023-02-07T07:03:13;36.47;;;21.50;;
21480;SDS011;10902;48.158;8.634;2023-02-07T07:05:40;34.30;;;20.33;;
21480;SDS011;10902;48.158;8.634;2023-02-07T07:08:08;36.22;;;21.05;;
21480;SDS011;10902;48.158;8.634;2023-02-07T07:10:33;38.15;;;20.98;;
21480;SDS011;10902;48.158;8.634;2023-02-07T07:12:59;37.35;;;21.02;;
21480;SDS011;10902;48.158;8.634;2023-02-07T07:15:25;38.92;;;21.67;;
21480;SDS011;10902;48.158;8.634;2023-02-07T07:17:51;37.55;;;21.77;;
21480;SDS011;10902;48.158;8.634;2023-02-07T07:20:16;36.00;;;22.05;;
21480;SDS011;10902;48.158;8.634;2023-02-07T07:22:42;37.10;;;21.73;;
21480;SDS011;10902;48.158;8.634;2023-02-07T07:25:07;36.33;;;21.20;;
21480;SDS011;10902;48.158;8.634;2023-02-07T07:27:33;34.90;;;21.00;;
21480;SDS011;10902;48.158;8.634;2023-02-07T07:29:59;36.08;;;20.30;;
21480;SDS011;10902;48.158;8.634;2023-02-07T07:32:25;36.45;;;20.55;;
21480;SDS011;10902;48.158;8.634;2023-02-07T07:34:51;38.33;;;22.23;;
21480;SDS011;10902;48.158;8.634;2023-02-07T07:37:18;39.00;;;22.45;;
21480;SDS011;10902;48.158;8.634;2023-02-07T07:39:44;40.08;;;21.95;;
21480;SDS011;10902;48.158;8.634;2023-02-07T07:42:10;35.78;;;21.90;;
21480;SDS011;10902;48.158;8.634;2023-02-07T07:44:36;38.65;;;22.75;;
21480;SDS011;10902;48.158;8.634;2023-02-07T07:47:02;37.95;;;22.15;;
21480;SDS011;10902;48.158;8.634;2023-02-07T07:49:27;31.92;;;20.35;;
21480;SDS011;10902;48.158;8.634;2023-02-07T07:51:53;33.97;;;19.98;;
21480;SDS011;10902;48.158;8.634;2023-02-07T07:54:18;29.83;;;19.30;;
21480;SDS011;10902;48.158;8.634;2023-02-07T07:56:44;29.02;;;18.33;;
21480;SDS011;10902;48.158;8.634;2023-02-07T07:59:10;30.02;;;18.27;;
21480;SDS011;10902;48.158;8.634;2023-02-07T08:01:35;28.58;;;17.67;;
21480;SDS011;10902;48.158;8.634;2023-02-07T08:04:01;26.98;;;17.38;;
21480;SDS011;10902;48.158;8.634;2023-02-07T08:06:27;25.63;;;16.13;;
21480;SDS011;10902;48.158;8.634;2023-02-07T08:08:54;26.92;;;16.42;;
21480;SDS011;10902;48.158;8.634;2023-02-07T08:11:20;26.88;;;16.73;;
21480;SDS011;10902;48.158;8.634;2023-02-07T08:13:47;22.83;;;15.80;;
21480;SDS011;10902;48.158;8.634;2023-02-07T08:16:13;22.02;;;14.98;;
21480;SDS011;10902;48.158;8.634;2023-02-07T08:18:39;25.25;;;15.98;;
21480;SDS011;10902;48.158;8.634;2023-02-07T08:21:05;28.13;;;15.88;;
21480;SDS011;10902;48.158;8.634;2023-02-07T08:23:31;24.38;;;16.48;;
21480;SDS011;10902;48.158;8.634;2023-02-07T08:25:57;24.42;;;15.25;;
21480;SDS011;10902;48.158;8.634;2023-02-07T08:28:22;24.05;;;15.80;;
21480;SDS011;10902;48.158;8.634;2023-02-07T08:30:48;23.50;;;15.57;;
21480;SDS011;10902;48.158;8.634;2023-02-07T08:33:14;21.42;;;15.02;;
21480;SDS011;10902;48.158;8.634;2023-02-07T08:35:40;23.48;;;15.85;;
21480;SDS011;10902;48.158;8.634;2023-02-07T08:38:06;23.73;;;15.40;;
21480;SDS011;10902;48.158;8.634;2023-02-07T08:40:32;21.92;;;15.27;;
21480;SDS011;10902;48.158;8.634;2023-02-07T08:42:58;22.50;;;14.82;;
21480;SDS011;10902;48.158;8.634;2023-02-07T08:45:23;22.75;;;14.98;;
21480;SDS011;10902;48.158;8.634;2023-02-07T08:47:49;22.13;;;15.35;;
21480;SDS011;10902;48.158;8.634;2023-02-07T08:50:15;18.75;;;13.63;;
21480;SDS011;10902;48.158;8.634;2023-02-07T08:52:41;19.95;;;14.55;;
21480;SDS011;10902;48.158;8.634;2023-02-07T08:55:07;18.25;;;13.93;;
21480;SDS011;10902;48.158;8.634;2023-02-07T08:57:34;20.83;;;13.82;;
21480;SDS011;10902;48.158;8.634;2023-02-07T08:59:59;17.17;;;12.90;;
21480;SDS011;10902;48.158;8.634;2023-02-07T09:02:25;17.35;;;13.18;;
21480;SDS011;10902;48.158;8.634;2023-02-07T09:04:51;17.20;;;12.27;;
21480;SDS011;10902;48.158;8.634;2023-02-07T09:07:17;19.05;;;13.20;;
21480;SDS011;10902;48.158;8.634;2023-02-07T09:09:44;17.17;;;13.43;;
21480;SDS011;10902;48.158;8.634;2023-02-07T09:12:10;16.27;;;12.68;;
21480;SDS011;10902;48.158;8.634;2023-02-07T09:14:37;18.33;;;12.85;;
21480;SDS011;10902;48.158;8.634;2023-02-07T09:17:03;17.45;;;13.90;;
21480;SDS011;10902;48.158;8.634;2023-02-07T09:19:29;18.63;;;13.13;;
21480;SDS011;10902;48.158;8.634;2023-02-07T09:21:55;18.95;;;13.18;;
21480;SDS011;10902;48.158;8.634;2023-02-07T09:24:21;17.75;;;13.02;;
21480;SDS011;10902;48.158;8.634;2023-02-07T09:26:46;18.13;;;12.98;;
21480;SDS011;10902;48.158;8.634;2023-02-07T09:29:13;15.65;;;12.48;;
21480;SDS011;10902;48.158;8.634;2023-02-07T09:31:39;17.85;;;13.13;;
21480;SDS011;10902;48.158;8.634;2023-02-07T09:34:04;17.80;;;13.13;;
21480;SDS011;10902;48.158;8.634;2023-02-07T09:36:31;15.68;;;11.85;;
21480;SDS011;10902;48.158;8.634;2023-02-07T09:38:58;15.15;;;12.13;;
21480;SDS011;10902;48.158;8.634;2023-02-07T09:41:33;15.10;;;12.57;;
21480;SDS011;10902;48.158;8.634;2023-02-07T09:44:14;14.15;;;11.70;;
21480;SDS011;10902;48.158;8.634;2023-02-07T09:46:51;15.82;;;12.57;;
21480;SDS011;10902;48.158;8.634;2023-02-07T09:49:37;14.95;;;12.43;;
21480;SDS011;10902;48.158;8.634;2023-02-07T09:52:04;16.08;;;12.20;;
21480;SDS011;10902;48.158;8.634;2023-02-07T09:54:37;16.58;;;12.20;;
21480;SDS011;10902;48.158;8.634;2023-02-07T09:57:07;16.70;;;12.55;;
21480;SDS011;10902;48.158;8.634;2023-02-07T09:59:42;15.70;;;13.82;;
21480;SDS011;10902;48.158;8.634;2023-02-07T10:02:45;17.38;;;12.43;;
21480;SDS011;10902;48.158;8.634;2023-02-07T10:05:06;17.20;;;12.63;;
21480;SDS011;10902;48.158;8.634;2023-02-07T10:07:43;15.13;;;12.15;;
21480;SDS011;10902;48.158;8.634;2023-02-07T10:10:16;16.30;;;13.70;;
21480;SDS011;10902;48.158;8.634;2023-02-07T10:12:57;17.50;;;12.70;;
21480;SDS011;10902;48.158;8.634;2023-02-07T10:15:45;17.63;;;13.80;;
21480;SDS011;10902;48.158;8.634;2023-02-07T10:24:16;17.77;;;13.77;;
21480;SDS011;10902;48.158;8.634;2023-02-07T10:27:06;16.60;;;12.52;;
21480;SDS011;10902;48.158;8.634;2023-02-07T10:32:30;16.58;;;12.80;;
21480;SDS011;10902;48.158;8.634;2023-02-07T10:35:03;15.50;;;12.27;;
21480;SDS011;10902;48.158;8.634;2023-02-07T10:37:39;18.00;;;12.73;;
21480;SDS011;10902;48.158;8.634;2023-02-07T10:43:03;16.48;;;13.18;;
21480;SDS011;10902;48.158;8.634;2023-02-07T10:45:34;18.83;;;13.23;;
21480;SDS011;10902;48.158;8.634;2023-02-07T10:48:01;18.17;;;13.65;;
21480;SDS011;10902;48.158;8.634;2023-02-07T10:50:39;17.75;;;13.73;;
21480;SDS011;10902;48.158;8.634;2023-02-07T10:53:05;15.35;;;12.63;;
21480;SDS011;10902;48.158;8.634;2023-02-07T10:55:41;17.23;;;13.88;;
21480;SDS011;10902;48.158;8.634;2023-02-07T10:58:17;15.88;;;12.35;;
21480;SDS011;10902;48.158;8.634;2023-02-07T11:00:48;17.52;;;12.18;;
21480;SDS011;10902;48.158;8.634;2023-02-07T11:03:24;16.33;;;12.38;;
21480;SDS011;10902;48.158;8.634;2023-02-07T11:05:55;15.38;;;12.75;;
21480;SDS011;10902;48.158;8.634;2023-02-07T11:08:30;17.13;;;13.13;;
21480;SDS011;10902;48.158;8.634;2023-02-07T11:10:59;14.90;;;12.25;;
21480;SDS011;10902;48.158;8.634;2023-02-07T11:13:49;15.75;;;13.25;;
21480;SDS011;10902;48.158;8.634;2023-02-07T11:16:16;15.93;;;12.52;;
21480;SDS011;10902;48.158;8.634;2023-02-07T11:18:53;15.30;;;12.07;;
21480;SDS011;10902;48.158;8.634;2023-02-07T11:21:41;15.77;;;12.60;;
21480;SDS011;10902;48.158;8.634;2023-02-07T11:32:15;19.98;;;13.80;;
21480;SDS011;10902;48.158;8.634;2023-02-07T11:37:17;15.55;;;12.82;;
21480;SDS011;10902;48.158;8.634;2023-02-07T11:39:48;17.35;;;13.20;;
21480;SDS011;10902;48.158;8.634;2023-02-07T11:42:29;14.95;;;12.18;;
21480;SDS011;10902;48.158;8.634;2023-02-07T11:44:56;15.32;;;13.45;;
21480;SDS011;10902;48.158;8.634;2023-02-07T11:47:28;16.90;;;13.18;;
21480;SDS011;10902;48.158;8.634;2023-02-07T11:49:55;14.32;;;12.05;;
21480;SDS011;10902;48.158;8.634;2023-02-07T11:52:24;16.83;;;12.90;;
21480;SDS011;10902;48.158;8.634;2023-02-07T11:54:52;15.18;;;13.57;;
21480;SDS011;10902;48.158;8.634;2023-02-07T11:57:21;16.70;;;13.15;;
21480;SDS011;10902;48.158;8.634;2023-02-07T12:02:25;16.23;;;13.10;;
21480;SDS011;10902;48.158;8.634;2023-02-07T12:04:53;16.20;;;13.05;;
21480;SDS011;10902;48.158;8.634;2023-02-07T12:07:21;16.67;;;13.32;;
21480;SDS011;10902;48.158;8.634;2023-02-07T12:10:02;18.83;;;12.95;;
21480;SDS011;10902;48.158;8.634;2023-02-07T12:12:43;16.75;;;13.23;;
21480;SDS011;10902;48.158;8.634;2023-02-07T12:15:17;16.15;;;13.25;;
21480;SDS011;10902;48.158;8.634;2023-02-07T12:23:42;14.25;;;12.00;;
21480;SDS011;10902;48.158;8.634;2023-02-07T12:31:42;17.85;;;13.27;;
21480;SDS011;10902;48.158;8.634;2023-02-07T12:34:37;15.07;;;12.05;;
21480;SDS011;10902;48.158;8.634;2023-02-07T12:45:17;16.27;;;11.80;;
21480;SDS011;10902;48.158;8.634;2023-02-07T12:50:37;16.77;;;13.55;;
21480;SDS011;10902;48.158;8.634;2023-02-07T12:53:20;15.50;;;12.05;;
21480;SDS011;10902;48.158;8.634;2023-02-07T12:59:05;13.35;;;11.25;;
21480;SDS011;10902;48.158;8.634;2023-02-07T13:01:39;16.88;;;13.43;;
21480;SDS011;10902;48.158;8.634;2023-02-07T13:15:59;13.35;;;11.43;;
21480;SDS011;10902;48.158;8.634;2023-02-07T13:18:56;15.18;;;12.63;;
21480;SDS011;10902;48.158;8.634;2023-02-07T13:21:39;14.32;;;11.43;;
21480;SDS011;10902;48.158;8.634;2023-02-07T13:24:16;14.48;;;12.18;;
21480;SDS011;10902;48.158;8.634;2023-02-07T13:26:57;14.30;;;11.00;;
21480;SDS011;10902;48.158;8.634;2023-02-07T13:29:28;14.98;;;11.63;;
21480;SDS011;10902;48.158;8.634;2023-02-07T13:32:00;14.55;;;11.25;;
21480;SDS011;10902;48.158;8.634;2023-02-07T13:34:44;14.30;;;11.18;;
21480;SDS011;10902;48.158;8.634;2023-02-07T13:37:15;15.13;;;11.93;;
21480;SDS011;10902;48.158;8.634;2023-02-07T13:48:45;13.32;;;11.02;;
21480;SDS011;10902;48.158;8.634;2023-02-07T13:51:23;16.13;;;11.27;;
21480;SDS011;10902;48.158;8.634;2023-02-07T13:56:36;14.15;;;11.05;;
21480;SDS011;10902;48.158;8.634;2023-02-07T14:02:05;15.63;;;10.88;;
21480;SDS011;10902;48.158;8.634;2023-02-07T14:05:07;17.00;;;11.70;;
21480;SDS011;10902;48.158;8.634;2023-02-07T14:07:32;13.13;;;11.35;;
21480;SDS011;10902;48.158;8.634;2023-02-07T14:10:00;14.25;;;11.55;;
21480;SDS011;10902;48.158;8.634;2023-02-07T14:12:28;13.75;;;10.55;;
21480;SDS011;10902;48.158;8.634;2023-02-07T14:15:17;15.77;;;11.45;;
21480;SDS011;10902;48.158;8.634;2023-02-07T14:18:00;15.65;;;10.88;;
21480;SDS011;10902;48.158;8.634;2023-02-07T14:23:09;15.07;;;11.38;;
21480;SDS011;10902;48.158;8.634;2023-02-07T14:25:40;13.30;;;10.40;;
21480;SDS011;10902;48.158;8.634;2023-02-07T14:28:16;10.88;;;8.85;;
21480;SDS011;10902;48.158;8.634;2023-02-07T14:33:16;11.02;;;8.77;;
21480;SDS011;10902;48.158;8.634;2023-02-07T14:36:04;15.00;;;10.10;;
21480;SDS011;10902;48.158;8.634;2023-02-07T14:38:40;13.60;;;10.27;;
21480;SDS011;10902;48.158;8.634;2023-02-07T14:41:11;14.40;;;11.30;;
21480;SDS011;10902;48.158;8.634;2023-02-07T14:43:40;14.05;;;10.77;;
21480;SDS011;10902;48.158;8.634;2023-02-07T14:46:14;13.60;;;10.07;;
21480;SDS011;10902;48.158;8.634;2023-02-07T14:51:21;14.68;;;10.85;;
21480;SDS011;10902;48.158;8.634;2023-02-07T14:54:01;14.18;;;10.85;;
21480;SDS011;10902;48.158;8.634;2023-02-07T14:56:52;12.45;;;10.02;;
21480;SDS011;10902;48.158;8.634;2023-02-07T15:04:52;12.32;;;9.60;;
21480;SDS011;10902;48.158;8.634;2023-02-07T15:07:18;11.50;;;8.32;;
21480;SDS011;10902;48.158;8.634;2023-02-07T15:09:43;11.40;;;8.30;;
21480;SDS011;10902;48.158;8.634;2023-02-07T15:12:09;10.90;;;8.55;;
21480;SDS011;10902;48.158;8.634;2023-02-07T15:14:58;11.07;;;8.95;;
21480;SDS011;10902;48.158;8.634;2023-02-07T15:17:24;12.00;;;8.95;;
21480;SDS011;10902;48.158;8.634;2023-02-07T15:19:51;12.52;;;8.15;;
21480;SDS011;10902;48.158;8.634;2023-02-07T15:22:24;11.68;;;8.27;;
21480;SDS011;10902;48.158;8.634;2023-02-07T15:24:53;10.95;;;8.48;;
21480;SDS011;10902;48.158;8.634;2023-02-07T15:27:25;11.80;;;8.65;;
21480;SDS011;10902;48.158;8.634;2023-02-07T15:29:56;10.20;;;7.78;;
21480;SDS011;10902;48.158;8.634;2023-02-07T15:34:51;12.27;;;8.23;;
21480;SDS011;10902;48.158;8.634;2023-02-07T15:37:18;11.43;;;8.25;;
21480;SDS011;10902;48.158;8.634;2023-02-07T15:39:45;11.20;;;7.75;;
21480;SDS011;10902;48.158;8.634;2023-02-07T15:42:15;11.70;;;8.25;;
21480;SDS011;10902;48.158;8.634;2023-02-07T15:44:49;11.10;;;7.70;;
21480;SDS011;10902;48.158;8.634;2023-02-07T15:50:01;9.73;;;7.40;;
21480;SDS011;10902;48.158;8.634;2023-02-07T15:55:11;11.43;;;8.32;;
21480;SDS011;10902;48.158;8.634;2023-02-07T15:57:58;11.07;;;8.10;;
21480;SDS011;10902;48.158;8.634;2023-02-07T16:00:34;10.63;;;7.28;;
21480;SDS011;10902;48.158;8.634;2023-02-07T16:03:06;9.73;;;7.15;;
21480;SDS011;10902;48.158;8.634;2023-02-07T16:05:59;11.57;;;6.78;;
21480;SDS011;10902;48.158;8.634;2023-02-07T16:08:43;11.65;;;7.78;;
21480;SDS011;10902;48.158;8.634;2023-02-07T16:11:11;10.98;;;7.65;;
21480;SDS011;10902;48.158;8.634;2023-02-07T16:13:48;12.82;;;8.35;;
21480;SDS011;10902;48.158;8.634;2023-02-07T16:16:20;12.18;;;7.75;;
21480;SDS011;10902;48.158;8.634;2023-02-07T16:18:49;11.85;;;7.82;;
21480;SDS011;10902;48.158;8.634;2023-02-07T16:21:20;11.63;;;8.10;;
21480;SDS011;10902;48.158;8.634;2023-02-07T16:23:48;12.50;;;8.10;;
21480;SDS011;10902;48.158;8.634;2023-02-07T16:26:19;10.57;;;7.53;;
21480;SDS011;10902;48.158;8.634;2023-02-07T16:28:48;14.05;;;8.82;;
21480;SDS011;10902;48.158;8.634;2023-02-07T16:31:14;12.43;;;8.55;;
21480;SDS011;10902;48.158;8.634;2023-02-07T16:33:39;14.32;;;8.80;;
21480;SDS011;10902;48.158;8.634;2023-02-07T16:36:05;14.13;;;9.85;;
21480;SDS011;10902;48.158;8.634;2023-02-07T16:38:37;13.73;;;8.70;;
21480;SDS011;10902;48.158;8.634;2023-02-07T16:41:04;15.18;;;9.07;;
21480;SDS011;10902;48.158;8.634;2023-02-07T16:43:37;13.50;;;8.95;;
21480;SDS011;10902;48.158;8.634;2023-02-07T16:46:04;14.20;;;8.85;;
21480;SDS011;10902;48.158;8.634;2023-02-07T16:48:30;12.77;;;8.98;;
21480;SDS011;10902;48.158;8.634;2023-02-07T16:50:55;14.68;;;9.02;;
21480;SDS011;10902;48.158;8.634;2023-02-07T16:53:25;14.85;;;8.63;;
21480;SDS011;10902;48.158;8.634;2023-02-07T16:55:51;14.57;;;9.07;;
21480;SDS011;10902;48.158;8.634;2023-02-07T16:58:20;13.90;;;8.55;;
21480;SDS011;10902;48.158;8.634;2023-02-07T17:00:50;12.45;;;8.68;;
21480;SDS011;10902;48.158;8.634;2023-02-07T17:03:17;12.55;;;8.95;;